Barlow, Alabama
Current Conditions -  °F | °C
As of 7:58 PM on Saturday 20 Dec 2014 (Local Time) from KMEI Reporting Station
Clear Clear  
Wind Chill: 40°   Ceiling: Unl
Heat Index: 40°   Visibility: 10mi
Dew Point: 39°   Wind: 0mph
Humidity: 97%   Direction: NA
Pressure: 30.19"   Gusts: NA
Location:  31.6272°N, 88.354°W
Report Text: KMEI 210158Z 00000KT 10SM CLR 04/04 A3019 RMK AO2 SLP225 T00440039
Loading
Personal Weather Stations






























Interactive Weather Map New forecast layout! Learn more

10-Day Weather Forecast

Advertisements
Track Severe Weather on mobile